Time;durP1;ratioP1;P1;durP2;ratioP2;P2;SDS_P1;SDS_P2;PMS_P1;PMS_P2;Temp;Humidity;BMP_temperature;BMP_pressure;BME280_temperature;BME280_humidity;BME280_pressure;Samples;Min_cycle;Max_cycle;Signal;HPM_P1;HPM_P2
2022/09/29 00:01:02;;;;;;;5.47;3.70;;;;;;;5.53;92.28;99967.38;5030952;28;20038;-76
2022/09/29 00:03:27;;;;;;;5.50;3.50;;;;;;;5.51;91.98;99968.31;5030946;28;20025;-76
2022/09/29 00:05:54;;;;;;;6.30;3.63;;;;;;;5.50;92.21;99969.22;5024100;28;20041;-76
2022/09/29 00:08:22;;;;;;;5.40;3.70;;;;;;;5.46;91.91;99968.38;5030798;28;20026;-76
2022/09/29 00:10:47;;;;;;;5.28;3.97;;;;;;;5.41;91.36;99967.56;5032020;28;20536;-76
2022/09/29 00:13:14;;;;;;;8.52;3.63;;;;;;;5.37;91.08;99966.75;5032086;28;20037;-76
2022/09/29 00:15:40;;;;;;;6.32;3.95;;;;;;;5.36;91.62;99965.00;5031789;28;20412;-76
2022/09/29 00:18:07;;;;;;;11.88;3.90;;;;;;;5.34;92.15;99965.91;5032026;28;20515;-76
2022/09/29 00:20:33;;;;;;;8.73;3.90;;;;;;;5.32;91.88;99967.72;5031726;28;20052;-76
2022/09/29 00:22:59;;;;;;;5.18;3.72;;;;;;;5.31;92.03;99968.59;5030578;28;20041;-76
2022/09/29 00:25:24;;;;;;;4.25;3.42;;;;;;;5.29;91.73;99965.13;5031692;28;20175;-76
2022/09/29 00:27:50;;;;;;;5.28;3.75;;;;;;;5.26;91.76;99957.28;5032162;28;20550;-76
2022/09/29 00:30:16;;;;;;;7.78;4.25;;;;;;;5.25;91.84;99966.94;5031781;28;20120;-75
2022/09/29 00:32:41;;;;;;;5.72;3.50;;;;;;;5.20;91.40;99965.28;5028490;28;20048;-76
2022/09/29 00:35:09;;;;;;;4.57;3.25;;;;;;;5.18;91.22;99963.53;5031726;28;20045;-76
2022/09/29 00:37:34;;;;;;;5.15;4.10;;;;;;;5.18;91.85;99955.66;5031809;28;20037;-76
2022/09/29 00:40:00;;;;;;;7.40;3.85;;;;;;;5.17;92.77;99958.31;5031715;28;20196;-75
2022/09/29 00:42:26;;;;;;;9.60;3.88;;;;;;;5.13;91.51;99960.09;5031915;28;20409;-75
2022/09/29 00:45:14;;;;;;;5.88;3.78;;;;;;;5.13;92.58;99961.84;5031916;28;20025;-76
2022/09/29 00:47:43;;;;;;;5.82;3.80;;;;;;;5.07;93.33;99960.19;5029619;28;20544;-75
2022/09/29 00:50:17;;;;;;;5.28;4.00;;;;;;;5.03;92.90;99961.09;5024083;28;20037;-75
2022/09/29 00:52:48;;;;;;;7.18;4.30;;;;;;;5.00;92.73;99966.41;5031247;28;20033;-76
2022/09/29 00:55:19;;;;;;;7.25;3.60;;;;;;;4.98;92.22;99965.56;5035130;28;20033;-75
2022/09/29 00:57:53;;;;;;;4.93;4.07;;;;;;;4.97;92.37;99966.47;5030613;28;20042;-75
2022/09/29 01:00:18;;;;;;;7.70;4.18;;;;;;;4.93;92.12;99962.13;5031361;28;20596;-75
2022/09/29 01:03:00;;;;;;;8.10;4.22;;;;;;;4.91;92.01;99961.28;5030625;28;20104;-75
2022/09/29 01:05:33;;;;;;;7.18;4.15;;;;;;;4.87;92.14;99955.22;5026532;28;20038;-76
2022/09/29 01:08:16;;;;;;;6.38;3.97;;;;;;;4.83;92.43;99953.50;5024271;28;20555;-75
2022/09/29 01:10:43;;;;;;;6.05;4.28;;;;;;;4.80;92.32;99956.16;5031395;28;20033;-75
2022/09/29 01:13:08;;;;;;;11.25;4.65;;;;;;;4.79;93.15;99953.56;5031559;28;20119;-75
2022/09/29 01:15:34;;;;;;;5.78;3.65;;;;;;;4.77;92.51;99955.31;5029999;28;20096;-75
2022/09/29 01:18:00;;;;;;;5.72;4.25;;;;;;;4.74;93.07;99951.84;5031225;28;20053;-76
2022/09/29 01:20:30;;;;;;;7.35;4.25;;;;;;;4.71;92.98;99951.88;5031023;28;20132;-75
2022/09/29 01:23:44;;;;;;;7.95;4.90;;;;;;;4.73;93.45;99955.38;5013618;28;20490;-75
2022/09/29 01:26:38;;;;;;;5.72;4.53;;;;;;;4.67;93.16;99959.81;5010048;28;20076;-75
2022/09/29 01:29:58;;;;;;;6.05;3.97;;;;;;;4.67;92.90;99959.81;5029374;28;20122;-75
2022/09/29 01:32:32;;;;;;;6.93;4.80;;;;;;;4.63;92.76;99961.63;4973174;28;20034;-75
2022/09/29 01:35:21;;;;;;;12.85;4.38;;;;;;;4.62;93.32;99959.84;5017723;28;20049;-75
2022/09/29 01:38:23;;;;;;;7.10;3.90;;;;;;;4.62;94.02;99952.00;5031318;28;20430;-75
2022/09/29 01:41:11;;;;;;;7.38;4.93;;;;;;;4.59;93.63;99967.75;5031113;28;20041;-75
2022/09/29 01:44:01;;;;;;;8.63;5.05;;;;;;;4.57;93.41;99960.81;5031350;28;20068;-75
2022/09/29 01:46:32;;;;;;;8.68;5.40;;;;;;;4.55;94.03;99963.47;5031124;28;20512;-75
2022/09/29 01:49:01;;;;;;;11.75;5.63;;;;;;;4.53;94.27;99963.47;5022582;28;20121;-75
2022/09/29 01:51:45;;;;;;;9.75;5.75;;;;;;;4.53;93.88;99965.22;5026262;28;20029;-75
2022/09/29 01:54:18;;;;;;;6.65;5.57;;;;;;;4.50;94.56;99965.25;5029716;28;20048;-75
2022/09/29 01:56:55;;;;;;;7.47;5.55;;;;;;;4.50;94.11;99965.25;5013680;28;20069;-75
2022/09/29 01:59:28;;;;;;;11.63;5.80;;;;;;;4.48;94.23;99964.41;5040267;28;20043;-75
2022/09/29 02:02:04;;;;;;;8.07;6.00;;;;;;;4.45;94.33;99967.94;5032291;28;20036;-75
2022/09/29 02:04:39;;;;;;;11.45;5.20;;;;;;;4.47;94.29;99960.91;5034807;28;20036;-75
2022/09/29 02:07:15;;;;;;;6.45;5.25;;;;;;;4.46;94.47;99966.19;5020821;28;20029;-75
2022/09/29 02:09:44;;;;;;;7.57;5.28;;;;;;;4.44;94.10;99963.56;5034778;28;20087;-75
2022/09/29 02:12:16;;;;;;;7.95;6.07;;;;;;;4.43;94.25;99963.59;5034619;28;20037;-75
2022/09/29 02:14:46;;;;;;;6.57;5.10;;;;;;;4.40;93.68;99961.00;5033109;28;20076;-75
2022/09/29 02:17:18;;;;;;;8.75;5.40;;;;;;;4.38;93.60;99962.78;5034652;28;20042;-75
2022/09/29 02:19:46;;;;;;;7.85;5.53;;;;;;;4.36;94.18;99957.53;5034598;28;20079;-75
2022/09/29 02:22:13;;;;;;;7.53;5.50;;;;;;;4.34;93.80;99964.56;5016467;28;20033;-75
2022/09/29 02:24:39;;;;;;;6.80;5.18;;;;;;;4.34;94.35;99966.31;5034438;28;20065;-75
2022/09/29 02:27:04;;;;;;;9.13;5.55;;;;;;;4.31;94.91;99964.59;5014601;28;20133;-75
2022/09/29 02:29:32;;;;;;;7.78;5.35;;;;;;;4.28;94.85;99960.25;5032820;28;20496;-75
2022/09/29 02:32:01;;;;;;;8.82;6.00;;;;;;;4.30;95.11;99968.06;5032788;28;20065;-75
2022/09/29 02:34:30;;;;;;;10.63;5.75;;;;;;;4.30;94.87;99978.56;5034174;28;20124;-75
2022/09/29 02:37:42;;;;;;;6.97;5.75;;;;;;;4.28;94.52;99975.13;5032809;28;20049;-75
2022/09/29 02:40:26;;;;;;;8.38;5.32;;;;;;;4.28;93.60;99969.88;5014319;28;20062;-75
2022/09/29 02:43:22;;;;;;;11.10;6.13;;;;;;;4.31;94.48;99977.69;5016040;28;20088;-75
2022/09/29 02:46:26;;;;;;;9.30;6.00;;;;;;;4.27;94.61;99968.13;5031671;28;20069;-76
2022/09/29 02:49:12;;;;;;;11.60;5.63;;;;;;;4.26;94.65;99975.13;5027966;28;20382;-75
2022/09/29 02:51:46;;;;;;;7.43;5.60;;;;;;;4.26;94.88;99975.13;5025841;28;20068;-75
2022/09/29 02:54:12;;;;;;;10.85;7.13;;;;;;;4.23;94.57;99974.28;5018925;28;20057;-75
2022/09/29 02:56:40;;;;;;;6.43;5.47;;;;;;;4.22;94.40;99970.78;5024211;28;20026;-75
2022/09/29 02:59:09;;;;;;;9.95;6.38;;;;;;;4.22;94.50;99970.78;5030138;28;20469;-75
2022/09/29 03:01:46;;;;;;;8.65;6.07;;;;;;;4.20;95.01;99975.16;5029587;28;20109;-75
2022/09/29 03:04:12;;;;;;;8.65;5.95;;;;;;;4.20;94.85;99972.53;5017476;28;20025;-75
2022/09/29 03:06:37;;;;;;;7.80;5.90;;;;;;;4.18;94.34;99969.09;5027586;28;20554;-75
2022/09/29 03:09:03;;;;;;;7.68;5.63;;;;;;;4.18;94.50;99970.81;5017381;28;20140;-75
2022/09/29 03:11:28;;;;;;;6.65;5.20;;;;;;;4.15;94.56;99976.97;5009458;28;20636;-75
2022/09/29 03:13:54;;;;;;;10.18;5.93;;;;;;;4.16;94.29;99983.09;5019930;28;20040;-75
2022/09/29 03:16:19;;;;;;;6.00;4.95;;;;;;;4.16;94.26;99976.09;5029100;28;20331;-75
2022/09/29 03:18:45;;;;;;;8.63;5.05;;;;;;;4.15;94.20;99982.19;5006856;28;20068;-75
2022/09/29 03:21:11;;;;;;;7.00;5.70;;;;;;;4.16;94.35;99977.84;5028081;28;20061;-75
2022/09/29 03:23:36;;;;;;;9.15;6.40;;;;;;;4.18;94.19;99979.56;5022661;28;20095;-75
2022/09/29 03:26:01;;;;;;;7.88;6.28;;;;;;;4.15;94.68;99974.34;5028691;28;20042;-75
2022/09/29 03:28:27;;;;;;;7.47;5.68;;;;;;;4.14;94.57;99971.75;5025905;28;20083;-75
2022/09/29 03:30:54;;;;;;;9.23;5.68;;;;;;;4.11;94.97;99970.03;5029423;28;20030;-75
2022/09/29 03:33:20;;;;;;;13.50;5.63;;;;;;;4.09;95.30;99972.66;5031194;28;20041;-75
2022/09/29 03:35:45;;;;;;;7.25;5.25;;;;;;;4.04;95.14;99971.84;5029429;28;20037;-75
2022/09/29 03:38:11;;;;;;;7.30;5.28;;;;;;;4.02;94.78;99976.22;5018950;28;20029;-75
2022/09/29 03:40:36;;;;;;;9.35;5.93;;;;;;;3.99;94.22;99970.16;5027717;28;20117;-75
2022/09/29 03:43:02;;;;;;;8.95;5.32;;;;;;;3.97;94.04;99970.16;5024975;28;20045;-75
2022/09/29 03:45:27;;;;;;;8.30;5.80;;;;;;;3.94;94.12;99966.69;5027212;28;20052;-75
2022/09/29 03:47:53;;;;;;;8.80;5.10;;;;;;;3.88;93.38;99973.72;5019856;28;20462;-75
2022/09/29 03:50:18;;;;;;;6.90;5.53;;;;;;;3.87;94.16;99977.22;5029764;28;20042;-75
2022/09/29 03:52:44;;;;;;;9.15;5.32;;;;;;;3.83;94.11;99979.88;5022191;28;20041;-75
2022/09/29 03:55:09;;;;;;;11.07;5.88;;;;;;;3.81;94.68;99979.91;5025573;28;20037;-75
2022/09/29 03:57:35;;;;;;;7.60;5.22;;;;;;;3.78;95.19;99977.28;5011493;28;20117;-75
2022/09/29 04:00:01;;;;;;;10.00;6.53;;;;;;;3.80;95.53;99979.91;5026197;28;20037;-75
2022/09/29 04:02:26;;;;;;;9.60;6.05;;;;;;;3.78;95.63;99977.28;5022103;28;20069;-75
2022/09/29 04:04:52;;;;;;;9.05;6.13;;;;;;;3.77;95.52;99988.66;5026256;28;20134;-75
2022/09/29 04:07:17;;;;;;;7.50;5.40;;;;;;;3.75;95.17;99986.94;5015452;28;20052;-75
2022/09/29 04:09:43;;;;;;;8.18;5.63;;;;;;;3.74;94.80;99991.31;5028165;28;20450;-75
2022/09/29 04:12:08;;;;;;;9.77;6.20;;;;;;;3.73;94.97;99986.94;5027192;28;20116;-75
2022/09/29 04:14:33;;;;;;;7.47;5.88;;;;;;;3.70;95.36;99993.94;5028838;28;20037;-75
2022/09/29 04:16:59;;;;;;;9.20;6.13;;;;;;;3.67;95.45;99993.09;5025478;28;20034;-75
2022/09/29 04:19:25;;;;;;;8.52;6.07;;;;;;;3.63;95.27;99993.97;5022355;28;20041;-75
2022/09/29 04:21:50;;;;;;;8.23;6.20;;;;;;;3.62;95.28;99994.88;5028902;28;20045;-75
2022/09/29 04:24:15;;;;;;;9.65;6.97;;;;;;;3.58;95.16;100001.00;5023304;28;20513;-75
2022/09/29 04:26:41;;;;;;;7.93;5.97;;;;;;;3.57;95.26;99996.66;5026544;28;20041;-75
2022/09/29 04:29:06;;;;;;;7.88;6.10;;;;;;;3.59;95.74;99999.28;5015670;28;20098;-75
2022/09/29 04:31:32;;;;;;;8.73;6.30;;;;;;;3.57;95.59;99996.66;5027293;28;20087;-75
2022/09/29 04:33:57;;;;;;;9.13;6.07;;;;;;;3.56;95.43;100000.16;5038034;28;20153;-75
2022/09/29 04:36:23;;;;;;;9.07;6.28;;;;;;;3.56;95.56;99997.53;5022147;28;20045;-75
2022/09/29 04:38:50;;;;;;;9.07;6.85;;;;;;;3.57;95.59;100004.50;5021248;28;20044;-75
2022/09/29 04:41:16;;;;;;;10.43;6.90;;;;;;;3.57;94.70;100003.66;4994142;28;20389;-75
2022/09/29 04:43:42;;;;;;;10.05;6.50;;;;;;;3.58;95.20;100006.22;5026582;28;20073;-75
2022/09/29 04:46:08;;;;;;;9.07;6.13;;;;;;;3.58;95.39;100010.59;5026427;28;20052;-75
2022/09/29 04:48:34;;;;;;;10.95;6.75;;;;;;;3.54;95.54;100011.53;5023498;28;20099;-75
2022/09/29 04:51:00;;;;;;;8.77;6.50;;;;;;;3.52;95.45;100019.38;5024712;28;20064;-75
2022/09/29 04:53:25;;;;;;;10.52;7.07;;;;;;;3.50;96.30;100015.03;5020266;28;20062;-75
2022/09/29 04:55:51;;;;;;;10.05;7.22;;;;;;;3.50;96.21;100020.25;5021055;28;20033;-75
2022/09/29 04:58:16;;;;;;;11.00;6.75;;;;;;;3.47;96.04;100013.31;5000767;28;20042;-74
2022/09/29 05:00:42;;;;;;;9.18;7.43;;;;;;;3.45;96.56;100017.66;5024149;28;20052;-74
2022/09/29 05:03:07;;;;;;;11.75;7.30;;;;;;;3.42;96.22;100020.31;4996652;28;20428;-74
2022/09/29 05:05:33;;;;;;;11.73;7.75;;;;;;;3.41;96.90;100024.69;5012535;28;20041;-74
2022/09/29 05:07:58;;;;;;;14.00;6.85;;;;;;;3.41;96.62;100016.84;5013703;28;20045;-74
2022/09/29 05:10:25;;;;;;;11.95;7.97;;;;;;;3.39;96.50;100020.34;5024605;28;20056;-74
2022/09/29 05:12:51;;;;;;;12.48;7.45;;;;;;;3.38;96.66;100023.81;5025567;28;20033;-74
2022/09/29 05:15:17;;;;;;;12.20;7.97;;;;;;;3.36;95.97;100017.72;5026709;28;20477;-74
2022/09/29 05:17:43;;;;;;;10.73;7.10;;;;;;;3.33;96.31;100025.59;5024919;28;20085;-74
2022/09/29 05:20:09;;;;;;;14.77;8.57;;;;;;;3.31;96.09;100033.44;5015231;28;20482;-74
2022/09/29 05:22:35;;;;;;;10.10;7.03;;;;;;;3.28;96.19;100033.47;5025735;28;20512;-74
2022/09/29 05:25:00;;;;;;;9.07;6.45;;;;;;;3.27;95.58;100038.72;5026610;28;20026;-74
2022/09/29 05:27:26;;;;;;;8.60;6.20;;;;;;;3.26;95.47;100043.06;5029028;28;20469;-74
2022/09/29 05:29:51;;;;;;;9.57;6.95;;;;;;;3.25;96.08;100041.34;5026437;28;20033;-74
2022/09/29 05:32:17;;;;;;;9.52;6.57;;;;;;;3.25;96.89;100043.94;5022180;28;20049;-74
2022/09/29 05:34:42;;;;;;;9.05;6.93;;;;;;;3.26;96.66;100048.28;5021948;28;20425;-74
2022/09/29 05:37:08;;;;;;;9.65;6.40;;;;;;;3.27;96.44;100049.19;5029647;28;20046;-74
2022/09/29 05:39:36;;;;;;;8.20;6.82;;;;;;;3.25;96.96;100051.81;5030093;28;20474;-74
2022/09/29 05:42:02;;;;;;;11.73;7.03;;;;;;;3.25;96.17;100051.81;5030571;28;20460;-74
2022/09/29 05:44:28;;;;;;;13.55;6.72;;;;;;;3.25;96.16;100056.19;5010801;28;20045;-74
2022/09/29 05:46:53;;;;;;;8.77;6.35;;;;;;;3.24;96.15;100057.94;4996539;28;20037;-74
2022/09/29 05:49:19;;;;;;;9.90;6.50;;;;;;;3.26;96.30;100066.63;5026356;28;20037;-74
2022/09/29 05:51:44;;;;;;;10.02;6.85;;;;;;;3.25;96.52;100057.03;5028329;28;20092;-74
2022/09/29 05:54:10;;;;;;;12.52;7.60;;;;;;;3.28;97.27;100064.88;5022530;28;20124;-74
2022/09/29 05:56:36;;;;;;;8.93;6.63;;;;;;;3.26;97.25;100058.75;5031803;28;20052;-74
2022/09/29 05:59:01;;;;;;;10.15;6.93;;;;;;;3.28;97.50;100064.00;5017805;28;20061;-74
2022/09/29 06:01:27;;;;;;;10.35;6.88;;;;;;;3.29;97.37;100071.84;5020713;28;20389;-74
2022/09/29 06:03:54;;;;;;;10.63;6.88;;;;;;;3.30;97.45;100063.13;5031303;28;20052;-74
2022/09/29 06:06:25;;;;;;;9.73;7.45;;;;;;;3.30;97.49;100068.34;5022304;28;20060;-74
2022/09/29 06:08:51;;;;;;;10.13;7.18;;;;;;;3.34;97.06;100069.19;5031752;28;20037;-74
2022/09/29 06:11:22;;;;;;;10.60;7.53;;;;;;;3.37;97.38;100069.19;5032276;28;20030;-74
2022/09/29 06:13:50;;;;;;;9.10;7.15;;;;;;;3.38;97.37;100070.94;5017986;28;20535;-74
2022/09/29 06:16:18;;;;;;;10.65;7.88;;;;;;;3.42;98.14;100070.03;5033205;28;20050;-74
2022/09/29 06:18:44;;;;;;;15.13;8.70;;;;;;;3.47;98.12;100076.13;5025749;28;20061;-74
2022/09/29 06:21:13;;;;;;;10.75;7.88;;;;;;;3.50;98.53;100081.34;5011979;28;20052;-74
2022/09/29 06:23:38;;;;;;;11.75;8.80;;;;;;;3.54;98.58;100079.59;5029519;28;20032;-74
2022/09/29 06:26:07;;;;;;;12.23;8.27;;;;;;;3.59;98.96;100085.66;5028688;28;20045;-74
2022/09/29 06:28:33;;;;;;;17.25;9.82;;;;;;;3.62;98.45;100085.63;5029804;28;20041;-74
2022/09/29 06:31:08;;;;;;;17.15;9.20;;;;;;;3.70;98.91;100090.84;5029004;28;20064;-74
2022/09/29 06:33:35;;;;;;;16.88;9.55;;;;;;;3.75;99.20;100095.16;5029593;28;20037;-74
2022/09/29 06:38:47;;;;;;;18.80;8.85;;;;;;;3.88;100.00;100101.19;5028930;28;20040;-74
2022/09/29 06:41:13;;;;;;;13.82;9.65;;;;;;;3.94;100.00;100097.69;5030007;28;20025;-74
2022/09/29 06:43:38;;;;;;;11.57;8.95;;;;;;;3.97;100.00;100095.03;5029886;28;20073;-74
2022/09/29 06:46:04;;;;;;;13.63;10.02;;;;;;;4.03;100.00;100102.81;5026579;28;20042;-74
2022/09/29 06:48:30;;;;;;;11.13;8.95;;;;;;;4.07;100.00;100110.66;5026752;28;20056;-74
2022/09/29 06:50:56;;;;;;;16.90;10.73;;;;;;;4.14;100.00;100116.75;5027826;28;20045;-71
2022/09/29 06:53:22;;;;;;;17.92;9.85;;;;;;;4.20;100.00;100110.56;5028750;28;20049;-71
2022/09/29 06:55:59;;;;;;;14.75;11.05;;;;;;;4.27;100.00;100113.13;5020898;28;20094;-71
2022/09/29 06:58:34;;;;;;;17.73;11.13;;;;;;;4.36;100.00;100109.59;5024104;28;20037;-71
2022/09/29 07:01:01;;;;;;;22.17;11.60;;;;;;;4.42;100.00;100114.75;5027906;28;20037;-71
2022/09/29 07:03:28;;;;;;;13.65;11.07;;;;;;;4.49;100.00;100110.34;5028100;28;20037;-71
2022/09/29 07:05:53;;;;;;;16.23;10.52;;;;;;;4.57;100.00;100120.75;5028692;28;20094;-71
2022/09/29 07:08:19;;;;;;;15.30;9.45;;;;;;;4.65;100.00;100125.06;5027978;28;20041;-72
2022/09/29 07:10:45;;;;;;;16.45;11.40;;;;;;;4.77;100.00;100120.56;5028219;28;20037;-72
2022/09/29 07:13:11;;;;;;;15.52;11.75;;;;;;;4.86;100.00;100125.72;5027281;28;20029;-72
2022/09/29 07:15:37;;;;;;;16.83;12.48;;;;;;;4.95;100.00;100130.91;5028776;28;20824;-72
2022/09/29 07:18:03;;;;;;;14.18;11.60;;;;;;;5.08;100.00;100126.38;5028773;28;20501;-72
2022/09/29 07:20:30;;;;;;;20.23;12.40;;;;;;;5.18;100.00;100134.13;5027319;28;20025;-72
2022/09/29 07:22:57;;;;;;;12.73;10.43;;;;;;;5.31;100.00;100126.97;5026072;28;20116;-72
2022/09/29 07:25:23;;;;;;;17.63;11.95;;;;;;;5.45;100.00;100133.84;5025631;28;20492;-72
2022/09/29 07:27:50;;;;;;;17.73;13.00;;;;;;;5.54;100.00;100129.34;5010502;28;20040;-72
2022/09/29 07:30:17;;;;;;;18.48;12.77;;;;;;;5.70;100.00;100129.13;5027367;28;20481;-72
2022/09/29 07:32:43;;;;;;;24.13;13.05;;;;;;;5.79;100.00;100124.63;5026536;28;20511;-72
2022/09/29 07:35:08;;;;;;;16.27;11.25;;;;;;;5.92;100.00;100134.97;5025962;28;20112;-72
2022/09/29 07:37:34;;;;;;;20.48;12.50;;;;;;;6.02;100.00;100132.22;5023521;28;20045;-72
2022/09/29 07:40:00;;;;;;;24.90;14.23;;;;;;;6.11;99.50;100128.59;5027555;28;20124;-72
2022/09/29 07:42:27;;;;;;;19.00;12.27;;;;;;;6.24;99.65;100124.00;5027126;28;20060;-72
2022/09/29 07:44:55;;;;;;;15.82;10.05;;;;;;;6.36;99.21;100136.97;5028557;28;20084;-72
2022/09/29 07:47:21;;;;;;;18.25;12.50;;;;;;;6.50;99.54;100139.34;5028044;28;20124;-72
2022/09/29 07:49:46;;;;;;;17.98;12.00;;;;;;;6.63;100.00;100143.53;5026008;28;20539;-72
2022/09/29 07:52:13;;;;;;;17.75;11.07;;;;;;;6.74;99.74;100134.59;5025623;28;20112;-72
2022/09/29 07:54:38;;;;;;;16.25;12.05;;;;;;;6.86;98.95;100142.28;5027240;28;20039;-72
2022/09/29 07:57:04;;;;;;;16.23;11.07;;;;;;;6.98;98.92;100144.69;5027324;28;20045;-71
2022/09/29 07:59:30;;;;;;;18.10;11.45;;;;;;;7.08;97.58;100148.00;5025312;28;20081;-71
2022/09/29 08:01:55;;;;;;;16.70;12.10;;;;;;;7.18;97.69;100144.31;5023697;28;20052;-72
2022/09/29 08:04:21;;;;;;;17.77;12.65;;;;;;;7.30;97.92;100153.75;5026206;28;20099;-71
2022/09/29 08:06:47;;;;;;;19.63;12.63;;;;;;;7.45;97.90;100155.22;5026775;28;20045;-72
2022/09/29 08:09:13;;;;;;;17.73;12.32;;;;;;;7.57;97.39;100156.69;5027561;28;20049;-72
2022/09/29 08:11:41;;;;;;;16.75;11.93;;;;;;;7.67;96.70;100161.78;5028319;28;20044;-71
2022/09/29 08:14:08;;;;;;;18.85;13.00;;;;;;;7.77;95.73;100165.09;5027951;28;20126;-71
2022/09/29 08:16:34;;;;;;;12.48;10.52;;;;;;;7.88;95.71;100165.69;5028406;28;20060;-71
2022/09/29 08:19:00;;;;;;;18.05;11.75;;;;;;;8.00;95.78;100164.56;5027264;28;20045;-71
2022/09/29 08:21:28;;;;;;;22.95;12.25;;;;;;;8.14;95.75;100172.19;5026761;28;20041;-72
2022/09/29 08:23:54;;;;;;;20.27;12.75;;;;;;;8.29;95.63;100174.47;5027186;28;20116;-72
2022/09/29 08:26:21;;;;;;;15.20;11.00;;;;;;;8.42;95.34;100167.16;5026356;28;20164;-71
2022/09/29 08:28:46;;;;;;;16.70;11.20;;;;;;;8.54;94.81;100179.22;5023794;28;20371;-71
2022/09/29 08:31:19;;;;;;;13.93;11.35;;;;;;;8.65;94.18;100177.16;5021172;28;20035;-72
2022/09/29 08:33:45;;;;;;;16.35;12.07;;;;;;;8.76;94.09;100180.41;5026546;28;20045;-71
2022/09/29 08:36:13;;;;;;;14.50;9.60;;;;;;;8.85;92.55;100179.28;5015148;28;20075;-71
2022/09/29 08:38:47;;;;;;;15.73;11.38;;;;;;;8.96;92.65;100182.53;5012054;28;20025;-72
2022/09/29 08:41:19;;;;;;;12.35;9.50;;;;;;;9.08;92.95;100191.94;5019207;28;20496;-72
2022/09/29 08:43:46;;;;;;;17.38;10.25;;;;;;;9.20;91.32;100190.75;5012192;28;20058;-71
2022/09/29 08:46:51;;;;;;;15.65;11.80;;;;;;;9.32;91.36;100190.41;5012006;28;20057;-72
2022/09/29 08:49:26;;;;;;;17.80;11.05;;;;;;;9.44;90.82;100187.41;5021140;28;20053;-72
2022/09/29 08:51:56;;;;;;;14.07;10.30;;;;;;;9.58;90.73;100196.75;5030652;28;20099;-72
2022/09/29 08:54:24;;;;;;;17.58;11.65;;;;;;;9.67;89.86;100194.72;5027344;28;20214;-72
2022/09/29 08:56:50;;;;;;;18.17;11.75;;;;;;;9.78;90.17;100198.81;5031810;28;20022;-72
2022/09/29 08:59:16;;;;;;;15.55;11.02;;;;;;;9.90;90.09;100198.47;5030400;28;20465;-72
2022/09/29 09:01:56;;;;;;;12.32;9.98;;;;;;;10.04;89.55;100193.66;5030514;28;20022;-72
2022/09/29 09:04:31;;;;;;;14.27;10.13;;;;;;;10.16;88.05;100194.16;5031780;28;20044;-72
2022/09/29 09:07:32;;;;;;;22.25;11.65;;;;;;;10.24;87.61;100200.13;5029277;28;20033;-72
2022/09/29 09:10:21;;;;;;;11.77;10.00;;;;;;;10.28;86.57;100201.75;5010925;28;20449;-72
2022/09/29 09:12:53;;;;;;;13.73;10.20;;;;;;;10.38;87.79;100199.69;5022073;28;20051;-72
2022/09/29 09:15:24;;;;;;;13.13;9.27;;;;;;;10.50;86.27;100204.63;5021645;28;20347;-72
2022/09/29 09:18:28;;;;;;;16.80;10.55;;;;;;;10.61;87.08;100207.78;5034734;28;20057;-72
2022/09/29 09:21:29;;;;;;;13.20;10.07;;;;;;;10.72;85.20;100207.44;5029807;28;20045;-72
2022/09/29 09:24:03;;;;;;;11.97;9.37;;;;;;;10.77;83.98;100205.50;5035397;28;20048;-72
2022/09/29 09:26:41;;;;;;;13.05;9.07;;;;;;;10.88;84.83;100213.09;5034162;28;20072;-73
2022/09/29 09:29:33;;;;;;;17.70;10.13;;;;;;;10.98;84.95;100209.25;5032043;28;20029;-72
2022/09/29 09:32:13;;;;;;;13.88;9.05;;;;;;;11.14;85.34;100210.44;5036172;28;20041;-73
2022/09/29 09:34:45;;;;;;;14.20;8.57;;;;;;;11.23;82.74;100211.91;5031956;28;20064;-73
2022/09/29 09:37:31;;;;;;;10.70;7.78;;;;;;;11.27;82.06;100210.00;5033841;28;20056;-73
2022/09/29 09:40:13;;;;;;;12.32;7.95;;;;;;;11.39;82.41;100205.13;5031725;28;20037;-73
2022/09/29 09:42:43;;;;;;;9.38;7.20;;;;;;;11.47;80.11;100214.59;5033893;28;20129;-73
2022/09/29 09:45:50;;;;;;;12.25;7.80;;;;;;;11.56;81.75;100211.63;5028193;28;20112;-73
2022/09/29 09:48:48;;;;;;;11.25;7.63;;;;;;;11.71;81.26;100211.06;5021994;28;20053;-73
2022/09/29 09:51:32;;;;;;;9.80;7.28;;;;;;;11.86;81.64;100209.66;5027602;28;20034;-73
2022/09/29 09:54:02;;;;;;;11.40;8.23;;;;;;;11.98;79.57;100214.53;5043367;28;20152;-73
2022/09/29 09:56:51;;;;;;;12.50;7.53;;;;;;;12.13;78.97;100215.72;5034985;28;20116;-73
2022/09/29 09:59:35;;;;;;;9.38;6.47;;;;;;;12.24;79.65;100218.84;5033562;28;20037;-73
2022/09/29 10:02:02;;;;;;;13.25;8.60;;;;;;;12.41;80.29;100222.63;5034603;28;20095;-73
2022/09/29 10:04:27;;;;;;;15.15;8.60;;;;;;;12.55;78.24;100222.94;5034973;28;20056;-73
2022/09/29 10:06:54;;;;;;;12.82;8.52;;;;;;;12.71;78.46;100223.22;5032090;28;20037;-74
2022/09/29 10:09:20;;;;;;;10.68;7.22;;;;;;;12.86;78.16;100227.03;5034747;28;20053;-73
2022/09/29 10:11:45;;;;;;;13.15;8.35;;;;;;;12.94;76.78;100224.06;5037300;28;20092;-74
2022/09/29 10:14:18;;;;;;;10.07;7.35;;;;;;;12.96;76.74;100231.03;5034526;28;20040;-73
2022/09/29 10:16:57;;;;;;;10.55;7.65;;;;;;;13.06;76.66;100229.72;5034973;28;20041;-74
2022/09/29 10:19:52;;;;;;;13.98;7.72;;;;;;;13.13;76.27;100227.69;5034213;28;20517;-74
2022/09/29 10:22:18;;;;;;;10.52;7.43;;;;;;;13.23;77.07;100230.78;5031425;28;20045;-74
2022/09/29 10:24:44;;;;;;;10.07;6.55;;;;;;;13.43;75.61;100222.00;5031528;28;20029;-74
2022/09/29 10:27:10;;;;;;;9.10;6.20;;;;;;;13.60;73.91;100234.56;5014788;28;20042;-74
2022/09/29 10:29:43;;;;;;;9.77;6.05;;;;;;;13.74;74.83;100226.84;5022142;28;20117;-74
2022/09/29 10:32:13;;;;;;;7.75;6.05;;;;;;;13.88;75.18;100242.19;5025989;28;20040;-74
2022/09/29 10:34:48;;;;;;;9.73;5.85;;;;;;;14.07;73.25;100231.53;5028151;28;20050;-74
2022/09/29 10:37:33;;;;;;;8.93;5.38;;;;;;;14.16;70.87;100239.97;5028808;28;20083;-74
2022/09/29 10:40:09;;;;;;;8.93;5.38;;;;;;;14.15;70.17;100235.59;5032570;28;20180;-74
2022/09/29 10:42:37;;;;;;;7.90;5.13;;;;;;;14.21;68.68;100242.44;5032313;28;20041;-74
2022/09/29 10:45:06;;;;;;;8.52;5.00;;;;;;;14.35;68.34;100241.81;5033683;28;20052;-74
2022/09/29 10:47:33;;;;;;;8.55;4.40;;;;;;;14.38;68.71;100244.31;5018431;28;20042;-74
2022/09/29 10:50:13;;;;;;;8.48;4.53;;;;;;;14.52;69.31;100238.34;5029308;28;20390;-74
2022/09/29 10:52:47;;;;;;;7.72;5.40;;;;;;;14.75;72.00;100235.44;5030361;28;20576;-74
2022/09/29 10:55:20;;;;;;;6.75;4.78;;;;;;;15.17;72.91;100236.06;5018901;28;20382;-74
2022/09/29 10:57:47;;;;;;;9.52;4.60;;;;;;;15.43;68.50;100234.72;5013804;28;20045;-75
2022/09/29 11:00:33;;;;;;;6.22;4.25;;;;;;;15.68;70.42;100237.84;5027540;28;20034;-75
2022/09/29 11:03:15;;;;;;;7.10;4.70;;;;;;;15.68;65.06;100234.31;5028262;28;20500;-74
2022/09/29 11:05:58;;;;;;;10.52;4.25;;;;;;;15.52;65.17;100234.25;5025740;28;20474;-75
2022/09/29 11:08:27;;;;;;;7.57;4.22;;;;;;;15.38;63.20;100232.31;5025361;28;20366;-75
2022/09/29 11:11:03;;;;;;;6.32;4.30;;;;;;;15.44;64.76;100244.47;5023350;28;20382;-74
2022/09/29 11:13:29;;;;;;;5.13;4.05;;;;;;;15.58;64.14;100239.28;5027278;28;20544;-74
2022/09/29 11:16:03;;;;;;;8.90;4.18;;;;;;;15.63;62.44;100239.03;5026575;28;20124;-75
2022/09/29 11:18:34;;;;;;;8.10;4.35;;;;;;;15.91;69.95;100243.81;5032414;28;20099;-75
2022/09/29 11:21:17;;;;;;;6.35;4.28;;;;;;;16.43;68.51;100242.78;5019033;28;20029;-75
2022/09/29 11:24:04;;;;;;;4.97;4.00;;;;;;;16.79;65.84;100239.00;5022791;28;20072;-75
2022/09/29 11:26:34;;;;;;;5.68;3.60;;;;;;;16.77;56.75;100247.09;5021410;28;20037;-75
2022/09/29 11:29:37;;;;;;;6.75;3.80;;;;;;;16.48;60.31;100246.91;5013841;28;20511;-75
2022/09/29 11:32:03;;;;;;;4.35;3.33;;;;;;;16.22;59.20;100248.38;5017829;28;20038;-75
2022/09/29 11:34:52;;;;;;;6.25;3.65;;;;;;;16.41;62.81;100247.34;5012502;28;20049;-75
2022/09/29 11:37:31;;;;;;;5.78;3.78;;;;;;;16.91;62.78;100248.97;5025791;28;20080;-75
2022/09/29 11:40:08;;;;;;;6.25;3.90;;;;;;;17.54;63.28;100248.81;5013146;28;20153;-75
2022/09/29 11:42:46;;;;;;;7.95;3.10;;;;;;;17.85;57.25;100244.31;5013021;28;20034;-75
2022/09/29 11:45:17;;;;;;;5.53;3.30;;;;;;;17.68;56.77;100239.97;5017275;28;20091;-75
2022/09/29 11:48:01;;;;;;;;;;;;;;;17.77;62.21;100246.56;5020531;28;20045;-75
2022/09/29 11:50:29;;;;;;;4.07;2.20;;;;;;;17.75;59.12;100243.97;5029310;28;20054;-79